createdAt,value
2022-12-31T00:02:01.799Z,100259.56
2022-12-31T00:05:03.655Z,100272.63
2022-12-31T00:08:05.370Z,100265.41
2022-12-31T00:11:06.936Z,100257.50
2022-12-31T00:14:08.603Z,100252.31
2022-12-31T00:17:10.165Z,100259.31
2022-12-31T00:20:12.049Z,100252.44
2022-12-31T00:23:13.565Z,100266.63
2022-12-31T00:26:18.257Z,100279.81
2022-12-31T00:29:19.725Z,100278.03
2022-12-31T00:32:21.251Z,100276.31
2022-12-31T00:35:22.756Z,100282.56
2022-12-31T00:38:24.212Z,100274.81
2022-12-31T00:41:26.957Z,100272.13
2022-12-31T00:44:28.447Z,100275.06
2022-12-31T00:47:29.982Z,100265.19
2022-12-31T00:50:31.587Z,100263.81
2022-12-31T00:53:33.706Z,100268.16
2022-12-31T00:56:35.163Z,100268.28
2022-12-31T00:59:36.609Z,100265.81
2022-12-31T01:02:38.253Z,100262.31
2022-12-31T01:05:39.869Z,100266.78
2022-12-31T01:08:41.414Z,100265.06
2022-12-31T01:11:43.695Z,100268.72
2022-12-31T01:14:48.106Z,100256.59
2022-12-31T01:17:49.661Z,100259.06
2022-12-31T01:20:51.254Z,100259.22
2022-12-31T01:23:52.795Z,100251.50
2022-12-31T01:26:54.971Z,100261.88
2022-12-31T01:29:56.509Z,100254.06
2022-12-31T01:32:58.270Z,100270.97
2022-12-31T01:36:08.670Z,100265.69
2022-12-31T01:39:11.144Z,100269.88
2022-12-31T01:42:12.781Z,100262.78
2022-12-31T01:45:14.354Z,100263.03
2022-12-31T01:48:22.355Z,100264.00
2022-12-31T01:51:27.456Z,100270.22
2022-12-31T01:54:31.226Z,100282.66
2022-12-31T01:57:32.880Z,100273.13
2022-12-31T02:00:34.883Z,100253.88
2022-12-31T02:03:37.423Z,100253.13
2022-12-31T02:06:48.715Z,100242.56
2022-12-31T02:09:50.683Z,100260.22
2022-12-31T02:12:52.671Z,100250.75
2022-12-31T02:16:10.604Z,100244.84
2022-12-31T02:19:24.212Z,100269.50
2022-12-31T02:22:37.664Z,100254.72
2022-12-31T02:26:17.932Z,100261.84
2022-12-31T02:29:25.607Z,100282.94
2022-12-31T02:32:34.670Z,100281.16
2022-12-31T02:35:53.778Z,100287.34
2022-12-31T02:38:57.416Z,100284.59
2022-12-31T02:42:00.352Z,100281.22
2022-12-31T02:45:01.909Z,100275.16
2022-12-31T02:48:29.242Z,100284.66
2022-12-31T02:51:46.474Z,100289.06
2022-12-31T02:55:03.180Z,100295.31
2022-12-31T02:58:26.675Z,100312.72
2022-12-31T03:01:35.499Z,100296.31
2022-12-31T03:04:37.302Z,100293.84
2022-12-31T03:07:40.862Z,100300.91
2022-12-31T03:10:42.423Z,100295.72
2022-12-31T03:13:44.029Z,100315.06
2022-12-31T03:16:45.527Z,100311.63
2022-12-31T03:19:47.460Z,100306.44
2022-12-31T03:22:48.958Z,100303.97
2022-12-31T03:25:50.822Z,100311.97
2022-12-31T03:28:52.312Z,100289.22
2022-12-31T03:31:53.900Z,100291.13
2022-12-31T03:34:55.525Z,100291.34
2022-12-31T03:37:57.309Z,100281.00
2022-12-31T03:40:58.959Z,100271.41
2022-12-31T03:44:00.557Z,100272.41
2022-12-31T03:47:02.148Z,100264.56
2022-12-31T03:50:05.236Z,100258.56
2022-12-31T03:53:07.086Z,100258.66
2022-12-31T03:56:08.745Z,100257.84
2022-12-31T03:59:10.403Z,100255.28
2022-12-31T04:02:12.330Z,100278.16
2022-12-31T04:05:15.032Z,100266.84
2022-12-31T04:08:16.520Z,100267.81
2022-12-31T04:11:20.989Z,100274.69
2022-12-31T04:14:22.754Z,100258.06
2022-12-31T04:17:25.085Z,100260.72
2022-12-31T04:20:26.531Z,100260.78
2022-12-31T04:23:28.071Z,100262.56
2022-12-31T04:26:29.959Z,100265.13
2022-12-31T04:29:31.427Z,100278.09
2022-12-31T04:32:32.932Z,100263.22
2022-12-31T04:35:34.511Z,100267.63
2022-12-31T04:38:36.069Z,100275.66
2022-12-31T04:41:37.598Z,100267.03
2022-12-31T04:44:39.177Z,100263.69
2022-12-31T04:47:40.735Z,100266.34
2022-12-31T04:50:42.281Z,100281.31
2022-12-31T04:53:43.959Z,100264.75
2022-12-31T04:56:45.509Z,100264.94
2022-12-31T04:59:47.054Z,100263.31
2022-12-31T05:02:49.605Z,100266.75
2022-12-31T05:06:00.545Z,100267.69
2022-12-31T05:09:02.218Z,100261.53
2022-12-31T05:12:03.880Z,100275.59
2022-12-31T05:15:06.196Z,100277.38
2022-12-31T05:18:08.578Z,100269.44
2022-12-31T05:21:15.311Z,100269.34
2022-12-31T05:24:16.786Z,100278.91
2022-12-31T05:27:18.441Z,100269.88
2022-12-31T05:30:20.282Z,100267.94
2022-12-31T05:33:21.834Z,100272.13
2022-12-31T05:36:23.398Z,100263.69
2022-12-31T05:39:24.936Z,100254.66
2022-12-31T05:42:27.049Z,100257.84
2022-12-31T05:45:31.032Z,100269.69
2022-12-31T05:48:33.090Z,100262.13
2022-12-31T05:51:34.702Z,100261.06
2022-12-31T05:54:36.387Z,100252.25
2022-12-31T05:57:39.208Z,100252.97
2022-12-31T06:00:42.494Z,100261.53
2022-12-31T06:03:44.159Z,100263.72
2022-12-31T06:06:45.885Z,100265.69
2022-12-31T06:09:50.457Z,100272.28
2022-12-31T06:12:52.159Z,100279.91
2022-12-31T06:15:53.915Z,100280.66
2022-12-31T06:18:55.546Z,100268.06
2022-12-31T06:21:57.201Z,100288.59
2022-12-31T06:24:58.715Z,100297.53
2022-12-31T06:28:00.286Z,100288.44
2022-12-31T06:31:06.933Z,100278.69
2022-12-31T06:34:11.689Z,100290.13
2022-12-31T06:37:13.320Z,100294.41
2022-12-31T06:40:15.061Z,100290.50
2022-12-31T06:43:16.799Z,100290.31
2022-12-31T06:46:18.409Z,100284.72
2022-12-31T06:49:20.141Z,100289.63
2022-12-31T06:52:21.837Z,100285.09
2022-12-31T06:55:23.757Z,100285.13
2022-12-31T06:58:25.640Z,100286.75
2022-12-31T07:01:46.082Z,100306.69
2022-12-31T07:05:07.760Z,100287.97
2022-12-31T07:08:19.428Z,100303.94
2022-12-31T07:11:26.621Z,100305.47
2022-12-31T07:14:52.961Z,100307.81
2022-12-31T07:18:14.905Z,100304.22
2022-12-31T07:21:45.489Z,100310.00
2022-12-31T07:24:47.850Z,100308.88
2022-12-31T07:27:59.936Z,100304.53
2022-12-31T07:31:26.972Z,100302.72
2022-12-31T07:34:56.891Z,100324.75
2022-12-31T07:38:10.271Z,100328.81
2022-12-31T07:41:33.460Z,100330.41
2022-12-31T07:44:55.012Z,100325.00
2022-12-31T07:48:02.265Z,100306.78
2022-12-31T07:51:04.811Z,100301.38
2022-12-31T15:50:44.129Z,100509.88
2022-12-31T15:53:51.587Z,100520.00
2022-12-31T15:56:54.119Z,100529.81
2022-12-31T16:00:00.322Z,100518.66
2022-12-31T16:03:04.330Z,100517.16
2022-12-31T16:06:14.949Z,100510.84
2022-12-31T16:09:27.226Z,100480.63
2022-12-31T16:12:36.038Z,100492.38
2022-12-31T16:15:41.305Z,100484.47
2022-12-31T16:18:44.069Z,100495.06
2022-12-31T16:21:45.938Z,100495.34
2022-12-31T16:25:30.174Z,100483.28
2022-12-31T16:28:20.520Z,100479.91
2022-12-31T16:31:22.137Z,100487.69
2022-12-31T16:34:26.444Z,100484.34
2022-12-31T16:37:28.834Z,100501.84
2022-12-31T16:40:30.580Z,100499.44
2022-12-31T16:43:38.145Z,100485.44
2022-12-31T16:46:40.670Z,100487.41
2022-12-31T16:49:42.693Z,100470.69
2022-12-31T16:52:47.025Z,100476.66
2022-12-31T16:56:08.352Z,100485.94
2022-12-31T16:59:12.832Z,100481.47
2022-12-31T17:02:25.724Z,100470.16
2022-12-31T17:05:27.946Z,100468.88
2022-12-31T17:08:44.572Z,100469.66
2022-12-31T17:11:57.764Z,100468.31
2022-12-31T17:15:03.067Z,100481.47
2022-12-31T17:18:06.071Z,100482.34
2022-12-31T17:21:12.076Z,100457.59
2022-12-31T17:24:13.881Z,100455.84
2022-12-31T17:27:16.314Z,100449.44
2022-12-31T17:30:27.579Z,100459.31
2022-12-31T17:33:31.063Z,100457.16
2022-12-31T17:36:32.701Z,100469.75
2022-12-31T17:39:53.641Z,100474.94
2022-12-31T17:42:55.425Z,100468.22
2022-12-31T17:45:57.085Z,100469.41
2022-12-31T17:49:02.052Z,100474.22
2022-12-31T17:52:03.814Z,100469.72
2022-12-31T17:55:05.575Z,100477.38
2022-12-31T17:58:07.692Z,100470.69
2022-12-31T18:01:10.027Z,100466.31
2022-12-31T18:04:16.330Z,100460.06
2022-12-31T18:07:17.863Z,100459.72
2022-12-31T18:10:22.546Z,100470.78
2022-12-31T18:13:26.313Z,100486.81
2022-12-31T18:16:28.420Z,100485.91
2022-12-31T18:20:02.953Z,100479.81
2022-12-31T18:22:52.082Z,100484.47
2022-12-31T18:25:54.048Z,100467.28
2022-12-31T18:28:57.895Z,100474.09
2022-12-31T18:31:59.417Z,100480.47
2022-12-31T18:35:00.949Z,100472.19
2022-12-31T18:38:02.975Z,100461.47
2022-12-31T18:41:05.314Z,100473.06
2022-12-31T18:44:07.372Z,100486.41
2022-12-31T18:47:14.301Z,100482.75
2022-12-31T18:50:16.525Z,100492.44
2022-12-31T18:53:21.999Z,100509.19
2022-12-31T18:56:23.515Z,100497.53
2022-12-31T18:59:24.980Z,100490.97
2022-12-31T19:02:26.470Z,100491.41
2022-12-31T19:05:31.155Z,100516.53
2022-12-31T19:08:32.711Z,100501.66
2022-12-31T19:11:34.487Z,100499.28
2022-12-31T19:14:36.032Z,100505.97
2022-12-31T19:17:37.588Z,100507.97
2022-12-31T19:20:39.613Z,100490.41
2022-12-31T19:23:41.117Z,100485.84
2022-12-31T19:26:43.531Z,100506.91
2022-12-31T19:29:45.265Z,100500.59
2022-12-31T19:32:46.867Z,100523.94
2022-12-31T19:35:48.675Z,100512.63
2022-12-31T19:38:50.275Z,100512.19
2022-12-31T19:41:58.520Z,100517.66
2022-12-31T19:45:00.814Z,100508.75
2022-12-31T19:48:02.346Z,100515.22
2022-12-31T19:51:08.596Z,100521.97
2022-12-31T19:54:12.745Z,100529.84
2022-12-31T19:57:14.182Z,100538.16
2022-12-31T20:00:17.936Z,100536.03
2022-12-31T20:03:19.610Z,100532.13
2022-12-31T20:06:21.134Z,100530.84
2022-12-31T20:09:23.192Z,100541.22
2022-12-31T20:12:24.690Z,100545.03
2022-12-31T20:15:26.245Z,100548.91
2022-12-31T20:18:27.761Z,100544.25
2022-12-31T20:21:29.560Z,100554.06
2022-12-31T20:24:31.202Z,100545.47
2022-12-31T20:27:32.750Z,100542.59
2022-12-31T20:30:37.567Z,100541.00
2022-12-31T20:33:39.359Z,100536.13
2022-12-31T20:36:41.058Z,100545.28
2022-12-31T20:39:42.905Z,100555.63
2022-12-31T20:42:44.503Z,100546.63
2022-12-31T20:45:46.028Z,100541.56
2022-12-31T20:48:49.064Z,100546.66
2022-12-31T20:51:52.302Z,100567.16
2022-12-31T20:54:53.990Z,100571.28
2022-12-31T20:57:55.575Z,100552.91
2022-12-31T21:00:57.167Z,100573.25
2022-12-31T21:04:05.925Z,100569.69
2022-12-31T21:07:08.360Z,100570.53
2022-12-31T21:10:09.882Z,100564.50
2022-12-31T21:13:11.460Z,100558.41
2022-12-31T21:16:13.051Z,100577.63
2022-12-31T21:19:14.762Z,100569.69
2022-12-31T21:22:16.507Z,100572.03
2022-12-31T21:25:18.151Z,100585.47
2022-12-31T21:28:19.724Z,100585.47
2022-12-31T21:31:21.477Z,100597.34
2022-12-31T21:34:23.142Z,100594.19
2022-12-31T21:37:24.743Z,100590.34
2022-12-31T21:40:46.755Z,100590.56
2022-12-31T21:43:48.318Z,100583.56
2022-12-31T21:47:34.058Z,100594.06
2022-12-31T21:50:22.511Z,100594.28
2022-12-31T21:53:30.458Z,100590.03
2022-12-31T21:56:37.586Z,100607.09
2022-12-31T21:59:44.710Z,100586.31
2022-12-31T22:02:59.149Z,100591.63
2022-12-31T22:06:04.164Z,100577.50
2022-12-31T22:09:05.774Z,100596.34
2022-12-31T22:12:07.467Z,100602.00
2022-12-31T22:15:15.467Z,100592.50
2022-12-31T22:18:17.821Z,100607.31
2022-12-31T22:21:21.735Z,100591.13
2022-12-31T22:24:23.351Z,100590.97
2022-12-31T22:27:29.081Z,100593.00
2022-12-31T22:30:31.962Z,100598.00
2022-12-31T22:33:33.569Z,100581.72
2022-12-31T22:36:35.171Z,100600.94
2022-12-31T22:39:43.334Z,100592.44
2022-12-31T22:42:46.325Z,100616.44
2022-12-31T22:45:47.875Z,100598.94
2022-12-31T22:48:51.285Z,100605.19
2022-12-31T22:51:56.859Z,100587.69
2022-12-31T22:55:00.337Z,100601.38
2022-12-31T22:58:01.858Z,100593.94
2022-12-31T23:01:07.590Z,100602.69
2022-12-31T23:04:09.236Z,100634.75
2022-12-31T23:07:10.769Z,100629.19
2022-12-31T23:10:12.773Z,100614.34
2022-12-31T23:13:14.302Z,100635.78
2022-12-31T23:16:15.898Z,100652.13
2022-12-31T23:19:17.558Z,100642.34
2022-12-31T23:22:19.173Z,100644.19
2022-12-31T23:25:23.021Z,100655.00
2022-12-31T23:28:25.116Z,100648.97
2022-12-31T23:31:26.743Z,100659.38
2022-12-31T23:34:28.268Z,100655.31
2022-12-31T23:37:29.812Z,100657.06
2022-12-31T23:40:31.323Z,100658.06
2022-12-31T23:43:32.860Z,100663.94
2022-12-31T23:46:34.483Z,100673.97
2022-12-31T23:49:36.342Z,100656.41
2022-12-31T23:52:37.858Z,100661.56
2022-12-31T23:55:39.303Z,100654.78
2022-12-31T23:58:40.813Z,100659.69
